Alligator Point, Florida
Current Conditions -  °F | °C
As of 3:53 AM on Sunday 23 Nov 2014 (Local Time) from KTLH Reporting Station
Overcast Overcast  
Wind Chill: 68°   Ceiling: 700
Heat Index: 68°   Visibility: 10mi
Dew Point: 64°   Wind: 8mph
Humidity: 87%   Direction: 130°SE
Pressure: 29.96"   Gusts: NA
Location:  30.0223°N, 84.3911°W
Report Text: KTLH 230853Z AUTO 13007KT 10SM OVC007 20/18 A2996 RMK AO2 RAE24 CIG 004V012 SLP143 P0008 60088 T02000178 57021 $
Loading
Personal Weather Stations






























Interactive Weather Map New forecast layout! Learn more

10-Day Weather Forecast

Advertisements
Track Severe Weather on mobile